sensor_id;sensor_type;location;lat;lon;timestamp;pressure;altitude;pressure_sealevel;temperature;humidity
71976;BME280;60680;52.182;5.398;2022-10-16T00:01:38;100953.91;;;12.85;83.63
71976;BME280;60680;52.182;5.398;2022-10-16T00:04:05;100947.84;;;12.84;84.10
71976;BME280;60680;52.182;5.398;2022-10-16T00:06:31;100947.00;;;12.84;84.72
71976;BME280;60680;52.182;5.398;2022-10-16T00:08:58;100951.38;;;12.83;84.84
71976;BME280;60680;52.182;5.398;2022-10-16T00:11:32;100951.38;;;12.83;84.63
71976;BME280;60680;52.182;5.398;2022-10-16T00:14:01;100948.94;;;12.80;84.04
71976;BME280;60680;52.182;5.398;2022-10-16T00:16:28;100951.56;;;12.80;83.92
71976;BME280;60680;52.182;5.398;2022-10-16T00:18:55;100965.56;;;12.79;83.88
71976;BME280;60680;52.182;5.398;2022-10-16T00:21:25;100965.56;;;12.79;83.92
71976;BME280;60680;52.182;5.398;2022-10-16T00:24:00;100959.47;;;12.79;83.76
71976;BME280;60680;52.182;5.398;2022-10-16T00:26:28;100970.88;;;12.78;84.50
71976;BME280;60680;52.182;5.398;2022-10-16T00:28:55;100958.81;;;12.75;83.91
71976;BME280;60680;52.182;5.398;2022-10-16T00:31:22;100963.94;;;12.77;83.54
71976;BME280;60680;52.182;5.398;2022-10-16T00:33:50;100956.22;;;12.75;84.01
71976;BME280;60680;52.182;5.398;2022-10-16T00:36:19;100958.72;;;12.77;83.70
71976;BME280;60680;52.182;5.398;2022-10-16T00:38:45;100949.22;;;12.76;84.72
71976;BME280;60680;52.182;5.398;2022-10-16T00:41:15;100955.34;;;12.75;84.43
71976;BME280;60680;52.182;5.398;2022-10-16T00:43:55;100951.91;;;12.74;84.13
71976;BME280;60680;52.182;5.398;2022-10-16T00:46:37;100944.00;;;12.76;84.14
71976;BME280;60680;52.182;5.398;2022-10-16T00:49:13;100955.34;;;12.75;84.06
71976;BME280;60680;52.182;5.398;2022-10-16T00:51:51;100957.97;;;12.75;84.40
71976;BME280;60680;52.182;5.398;2022-10-16T00:54:29;100946.53;;;12.77;84.70
71976;BME280;60680;52.182;5.398;2022-10-16T00:57:00;100949.97;;;12.78;84.25
71976;BME280;60680;52.182;5.398;2022-10-16T00:59:30;100956.78;;;12.80;84.16
71976;BME280;60680;52.182;5.398;2022-10-16T01:01:58;100955.88;;;12.81;84.21
71976;BME280;60680;52.182;5.398;2022-10-16T01:04:26;100943.63;;;12.82;83.89
71976;BME280;60680;52.182;5.398;2022-10-16T01:13:01;100969.06;;;12.94;84.26
71976;BME280;60680;52.182;5.398;2022-10-16T01:15:45;100967.28;;;12.95;84.13
71976;BME280;60680;52.182;5.398;2022-10-16T01:18:14;100966.16;;;12.99;83.97
71976;BME280;60680;52.182;5.398;2022-10-16T01:20:59;100969.53;;;13.01;84.17
71976;BME280;60680;52.182;5.398;2022-10-16T01:23:42;100962.53;;;13.01;84.61
71976;BME280;60680;52.182;5.398;2022-10-16T01:26:38;100961.41;;;13.05;84.00
71976;BME280;60680;52.182;5.398;2022-10-16T01:29:22;100965.69;;;13.06;84.84
71976;BME280;60680;52.182;5.398;2022-10-16T01:31:57;100971.78;;;13.07;84.86
71976;BME280;60680;52.182;5.398;2022-10-16T01:34:32;100961.34;;;13.07;84.88
71976;BME280;60680;52.182;5.398;2022-10-16T01:37:05;100963.09;;;13.06;85.07
71976;BME280;60680;52.182;5.398;2022-10-16T01:39:35;100966.72;;;13.04;85.09
71976;BME280;60680;52.182;5.398;2022-10-16T01:42:09;100963.28;;;13.03;85.32
71976;BME280;60680;52.182;5.398;2022-10-16T01:44:38;100963.28;;;13.03;85.51
71976;BME280;60680;52.182;5.398;2022-10-16T01:47:08;100974.56;;;13.04;85.55
71976;BME280;60680;52.182;5.398;2022-10-16T01:49:38;100975.50;;;13.03;85.09
71976;BME280;60680;52.182;5.398;2022-10-16T01:52:10;100968.50;;;13.03;85.73
71976;BME280;60680;52.182;5.398;2022-10-16T01:54:41;100971.88;;;13.05;85.79
71976;BME280;60680;52.182;5.398;2022-10-16T01:57:08;100956.28;;;13.04;85.46
71976;BME280;60680;52.182;5.398;2022-10-16T01:59:42;100930.91;;;13.06;85.51
71976;BME280;60680;52.182;5.398;2022-10-16T02:02:10;100930.06;;;13.05;85.47
71976;BME280;60680;52.182;5.398;2022-10-16T02:04:40;100935.38;;;13.04;86.06
71976;BME280;60680;52.182;5.398;2022-10-16T02:07:09;100939.84;;;13.02;86.19
71976;BME280;60680;52.182;5.398;2022-10-16T02:09:36;100946.84;;;13.01;86.62
71976;BME280;60680;52.182;5.398;2022-10-16T02:12:11;100942.47;;;13.02;86.29
71976;BME280;60680;52.182;5.398;2022-10-16T02:14:40;100952.16;;;13.00;86.75
71976;BME280;60680;52.182;5.398;2022-10-16T02:17:15;100951.25;;;13.01;86.64
71976;BME280;60680;52.182;5.398;2022-10-16T02:19:42;100951.31;;;12.99;86.94
71976;BME280;60680;52.182;5.398;2022-10-16T02:22:18;100962.59;;;13.00;86.55
71976;BME280;60680;52.182;5.398;2022-10-16T02:24:56;100959.25;;;12.98;86.61
71976;BME280;60680;52.182;5.398;2022-10-16T02:32:44;100970.63;;;12.97;86.44
71976;BME280;60680;52.182;5.398;2022-10-16T02:35:13;100966.44;;;12.94;86.92
71976;BME280;60680;52.182;5.398;2022-10-16T02:37:41;100969.22;;;12.91;87.01
71976;BME280;60680;52.182;5.398;2022-10-16T02:40:09;100977.13;;;12.90;87.32
71976;BME280;60680;52.182;5.398;2022-10-16T02:42:39;100975.47;;;12.89;87.15
71976;BME280;60680;52.182;5.398;2022-10-16T02:45:07;100980.69;;;12.89;87.17
71976;BME280;60680;52.182;5.398;2022-10-16T02:47:34;100987.75;;;12.87;87.67
71976;BME280;60680;52.182;5.398;2022-10-16T02:50:00;100990.38;;;12.87;86.87
71976;BME280;60680;52.182;5.398;2022-10-16T02:52:27;100993.00;;;12.87;87.55
71976;BME280;60680;52.182;5.398;2022-10-16T02:54:54;100983.47;;;12.85;87.65
71976;BME280;60680;52.182;5.398;2022-10-16T02:57:20;100994.00;;;12.84;87.69
71976;BME280;60680;52.182;5.398;2022-10-16T02:59:46;100986.19;;;12.84;88.10
71976;BME280;60680;52.182;5.398;2022-10-16T03:02:13;100994.00;;;12.84;87.77
71976;BME280;60680;52.182;5.398;2022-10-16T03:04:39;100987.84;;;12.85;87.84
71976;BME280;60680;52.182;5.398;2022-10-16T03:07:06;100987.00;;;12.84;88.02
71976;BME280;60680;52.182;5.398;2022-10-16T03:09:33;100988.78;;;12.84;88.07
71976;BME280;60680;52.182;5.398;2022-10-16T03:12:00;100981.78;;;12.84;88.24
71976;BME280;60680;52.182;5.398;2022-10-16T03:14:26;100973.88;;;12.86;87.97
71976;BME280;60680;52.182;5.398;2022-10-16T03:16:53;100978.22;;;12.85;88.28
71976;BME280;60680;52.182;5.398;2022-10-16T03:19:19;100960.91;;;12.84;88.46
71976;BME280;60680;52.182;5.398;2022-10-16T03:21:45;100971.41;;;12.83;88.67
71976;BME280;60680;52.182;5.398;2022-10-16T03:24:12;100974.97;;;12.82;88.39
71976;BME280;60680;52.182;5.398;2022-10-16T03:26:38;100974.97;;;12.82;88.52
71976;BME280;60680;52.182;5.398;2022-10-16T03:29:05;100986.44;;;12.79;88.32
71976;BME280;60680;52.182;5.398;2022-10-16T03:31:32;100980.56;;;12.76;88.65
71976;BME280;60680;52.182;5.398;2022-10-16T03:33:58;100983.16;;;12.76;89.15
71976;BME280;60680;52.182;5.398;2022-10-16T03:36:25;100989.41;;;12.73;88.59
71976;BME280;60680;52.182;5.398;2022-10-16T03:38:51;100984.25;;;12.72;89.36
71976;BME280;60680;52.182;5.398;2022-10-16T03:41:18;100978.22;;;12.71;88.85
71976;BME280;60680;52.182;5.398;2022-10-16T03:43:44;100986.97;;;12.70;89.41
71976;BME280;60680;52.182;5.398;2022-10-16T03:46:10;101001.78;;;12.70;89.49
71976;BME280;60680;52.182;5.398;2022-10-16T03:48:37;101013.16;;;12.69;89.48
71976;BME280;60680;52.182;5.398;2022-10-16T03:51:03;100998.41;;;12.68;89.34
71976;BME280;60680;52.182;5.398;2022-10-16T03:53:30;101003.66;;;12.68;89.52
71976;BME280;60680;52.182;5.398;2022-10-16T03:55:56;101009.81;;;12.67;89.40
71976;BME280;60680;52.182;5.398;2022-10-16T03:58:23;101011.56;;;12.66;89.75
71976;BME280;60680;52.182;5.398;2022-10-16T04:00:49;101014.28;;;12.64;89.55
71976;BME280;60680;52.182;5.398;2022-10-16T04:03:16;101009.06;;;12.64;89.25
71976;BME280;60680;52.182;5.398;2022-10-16T04:05:43;101015.94;;;12.65;89.86
71976;BME280;60680;52.182;5.398;2022-10-16T04:08:09;101012.50;;;12.65;89.70
71976;BME280;60680;52.182;5.398;2022-10-16T04:10:36;101017.72;;;12.65;89.47
71976;BME280;60680;52.182;5.398;2022-10-16T04:13:02;101018.63;;;12.64;89.38
71976;BME280;60680;52.182;5.398;2022-10-16T04:15:29;101017.78;;;12.63;89.98
71976;BME280;60680;52.182;5.398;2022-10-16T04:17:55;101027.41;;;12.63;89.73
71976;BME280;60680;52.182;5.398;2022-10-16T04:20:22;101037.84;;;12.63;89.45
71976;BME280;60680;52.182;5.398;2022-10-16T04:22:48;101038.69;;;12.63;89.29
71976;BME280;60680;52.182;5.398;2022-10-16T04:25:15;101038.59;;;12.65;89.53
71976;BME280;60680;52.182;5.398;2022-10-16T04:27:41;101048.22;;;12.64;89.56
71976;BME280;60680;52.182;5.398;2022-10-16T04:30:11;101047.34;;;12.64;89.28
71976;BME280;60680;52.182;5.398;2022-10-16T04:32:38;101041.38;;;12.62;89.47
71976;BME280;60680;52.182;5.398;2022-10-16T04:35:05;101055.38;;;12.61;90.15
71976;BME280;60680;52.182;5.398;2022-10-16T04:37:31;101056.28;;;12.60;89.59
71976;BME280;60680;52.182;5.398;2022-10-16T04:39:58;101062.38;;;12.60;89.38
71976;BME280;60680;52.182;5.398;2022-10-16T04:42:24;101057.22;;;12.59;90.29
71976;BME280;60680;52.182;5.398;2022-10-16T04:44:51;101062.53;;;12.57;89.55
71976;BME280;60680;52.182;5.398;2022-10-16T04:47:17;101061.75;;;12.55;89.81
71976;BME280;60680;52.182;5.398;2022-10-16T04:49:43;101069.69;;;12.54;89.88
71976;BME280;60680;52.182;5.398;2022-10-16T04:52:10;101073.13;;;12.54;90.22
71976;BME280;60680;52.182;5.398;2022-10-16T04:54:36;101081.81;;;12.55;90.13
71976;BME280;60680;52.182;5.398;2022-10-16T04:57:03;101088.81;;;12.54;90.46
71976;BME280;60680;52.182;5.398;2022-10-16T04:59:30;101080.22;;;12.52;90.11
71976;BME280;60680;52.182;5.398;2022-10-16T05:01:57;101090.66;;;12.52;90.45
71976;BME280;60680;52.182;5.398;2022-10-16T05:04:23;101086.34;;;12.51;90.27
71976;BME280;60680;52.182;5.398;2022-10-16T05:06:50;101088.13;;;12.51;90.14
71976;BME280;60680;52.182;5.398;2022-10-16T05:09:16;101098.63;;;12.49;90.39
71976;BME280;60680;52.182;5.398;2022-10-16T05:11:42;101096.97;;;12.48;90.91
71976;BME280;60680;52.182;5.398;2022-10-16T05:14:09;101109.19;;;12.48;90.21
71976;BME280;60680;52.182;5.398;2022-10-16T05:16:36;101100.50;;;12.47;90.78
71976;BME280;60680;52.182;5.398;2022-10-16T05:19:02;101114.56;;;12.44;90.54
71976;BME280;60680;52.182;5.398;2022-10-16T05:21:49;101114.63;;;12.43;91.03
71976;BME280;60680;52.182;5.398;2022-10-16T05:24:16;101113.78;;;12.42;90.91
71976;BME280;60680;52.182;5.398;2022-10-16T05:26:42;101119.00;;;12.42;90.57
71976;BME280;60680;52.182;5.398;2022-10-16T05:29:08;101119.84;;;12.43;90.75
71976;BME280;60680;52.182;5.398;2022-10-16T05:31:35;101133.75;;;12.43;90.55
71976;BME280;60680;52.182;5.398;2022-10-16T05:34:02;101128.53;;;12.43;90.82
71976;BME280;60680;52.182;5.398;2022-10-16T05:36:28;101135.50;;;12.43;90.88
71976;BME280;60680;52.182;5.398;2022-10-16T05:38:55;101138.97;;;12.43;90.98
71976;BME280;60680;52.182;5.398;2022-10-16T05:41:21;101149.41;;;12.43;91.18
71976;BME280;60680;52.182;5.398;2022-10-16T05:43:49;101147.66;;;12.44;91.32
71976;BME280;60680;52.182;5.398;2022-10-16T05:46:16;101147.66;;;12.44;91.17
71976;BME280;60680;52.182;5.398;2022-10-16T05:48:43;101165.09;;;12.43;91.07
71976;BME280;60680;52.182;5.398;2022-10-16T05:51:11;101162.38;;;12.45;91.00
71976;BME280;60680;52.182;5.398;2022-10-16T05:53:39;101171.06;;;12.46;91.12
71976;BME280;60680;52.182;5.398;2022-10-16T05:56:07;101177.13;;;12.46;91.30
71976;BME280;60680;52.182;5.398;2022-10-16T05:58:37;101184.94;;;12.46;90.60
71976;BME280;60680;52.182;5.398;2022-10-16T06:01:05;101185.72;;;12.48;91.19
71976;BME280;60680;52.182;5.398;2022-10-16T06:03:33;101185.72;;;12.48;91.04
71976;BME280;60680;52.182;5.398;2022-10-16T06:06:10;101184.69;;;12.51;91.08
71976;BME280;60680;52.182;5.398;2022-10-16T06:08:39;101184.78;;;12.49;90.73
71976;BME280;60680;52.182;5.398;2022-10-16T06:11:07;101188.25;;;12.50;90.96
71976;BME280;60680;52.182;5.398;2022-10-16T06:13:34;101189.91;;;12.51;91.35
71976;BME280;60680;52.182;5.398;2022-10-16T06:16:02;101202.97;;;12.51;91.16
71976;BME280;60680;52.182;5.398;2022-10-16T06:18:29;101206.53;;;12.50;91.78
71976;BME280;60680;52.182;5.398;2022-10-16T06:20:57;101203.91;;;12.50;91.62
71976;BME280;60680;52.182;5.398;2022-10-16T06:23:24;101196.09;;;12.50;91.92
71976;BME280;60680;52.182;5.398;2022-10-16T06:25:51;101207.28;;;12.52;92.03
71976;BME280;60680;52.182;5.398;2022-10-16T06:28:18;101230.78;;;12.52;91.37
71976;BME280;60680;52.182;5.398;2022-10-16T06:30:44;101221.09;;;12.54;91.65
71976;BME280;60680;52.182;5.398;2022-10-16T06:33:12;101233.28;;;12.53;92.07
71976;BME280;60680;52.182;5.398;2022-10-16T06:35:38;101234.16;;;12.54;91.63
71976;BME280;60680;52.182;5.398;2022-10-16T06:38:05;101214.09;;;12.54;91.98
71976;BME280;60680;52.182;5.398;2022-10-16T06:40:31;101215.94;;;12.52;92.39
71976;BME280;60680;52.182;5.398;2022-10-16T06:42:58;101226.47;;;12.51;92.05
71976;BME280;60680;52.182;5.398;2022-10-16T06:45:24;101226.47;;;12.51;92.73
71976;BME280;60680;52.182;5.398;2022-10-16T06:47:50;101224.81;;;12.50;92.88
71976;BME280;60680;52.182;5.398;2022-10-16T06:50:17;101237.84;;;12.50;92.26
71976;BME280;60680;52.182;5.398;2022-10-16T06:52:43;101240.47;;;12.50;92.80
71976;BME280;60680;52.182;5.398;2022-10-16T06:55:09;101251.75;;;12.50;92.39
71976;BME280;60680;52.182;5.398;2022-10-16T06:57:36;101244.75;;;12.51;93.01
71976;BME280;60680;52.182;5.398;2022-10-16T07:00:03;101237.69;;;12.53;92.98
71976;BME280;60680;52.182;5.398;2022-10-16T07:02:29;101242.00;;;12.54;92.98
71976;BME280;60680;52.182;5.398;2022-10-16T07:04:56;101250.66;;;12.54;92.43
71976;BME280;60680;52.182;5.398;2022-10-16T07:07:23;101251.50;;;12.55;92.52
71976;BME280;60680;52.182;5.398;2022-10-16T07:09:50;101253.09;;;12.57;92.45
71976;BME280;60680;52.182;5.398;2022-10-16T07:12:17;101252.94;;;12.60;92.59
71976;BME280;60680;52.182;5.398;2022-10-16T07:14:43;101260.69;;;12.62;92.10
71976;BME280;60680;52.182;5.398;2022-10-16T07:17:10;101264.06;;;12.64;92.08
71976;BME280;60680;52.182;5.398;2022-10-16T07:19:36;101267.44;;;12.66;91.37
71976;BME280;60680;52.182;5.398;2022-10-16T07:22:03;101276.97;;;12.67;91.08
71976;BME280;60680;52.182;5.398;2022-10-16T07:24:29;101278.56;;;12.70;91.12
71976;BME280;60680;52.182;5.398;2022-10-16T07:26:56;101282.78;;;12.72;90.79
71976;BME280;60680;52.182;5.398;2022-10-16T07:29:22;101286.16;;;12.74;91.25
71976;BME280;60680;52.182;5.398;2022-10-16T07:31:49;101291.31;;;12.76;90.87
71976;BME280;60680;52.182;5.398;2022-10-16T07:34:17;101295.44;;;12.80;90.52
71976;BME280;60680;52.182;5.398;2022-10-16T07:36:44;101306.56;;;12.83;90.61
71976;BME280;60680;52.182;5.398;2022-10-16T07:39:10;101308.34;;;12.83;90.80
71976;BME280;60680;52.182;5.398;2022-10-16T07:41:37;101316.16;;;12.83;89.13
71976;BME280;60680;52.182;5.398;2022-10-16T07:44:04;101312.72;;;12.82;89.49
71976;BME280;60680;52.182;5.398;2022-10-16T07:46:30;101317.09;;;12.82;89.15
71976;BME280;60680;52.182;5.398;2022-10-16T07:48:57;101327.56;;;12.82;89.83
71976;BME280;60680;52.182;5.398;2022-10-16T07:51:25;101337.75;;;12.87;89.37
71976;BME280;60680;52.182;5.398;2022-10-16T07:53:52;101356.81;;;12.89;89.32
71976;BME280;60680;52.182;5.398;2022-10-16T07:56:20;101354.78;;;12.94;89.13
71976;BME280;60680;52.182;5.398;2022-10-16T07:58:46;101356.94;;;13.03;89.69
71976;BME280;60680;52.182;5.398;2022-10-16T08:01:14;101354.59;;;13.14;88.84
71976;BME280;60680;52.182;5.398;2022-10-16T08:03:45;101343.38;;;13.28;89.22
71976;BME280;60680;52.182;5.398;2022-10-16T08:06:12;101353.31;;;13.39;88.63
71976;BME280;60680;52.182;5.398;2022-10-16T08:08:39;101356.34;;;13.47;88.10
71976;BME280;60680;52.182;5.398;2022-10-16T08:11:05;101355.03;;;13.56;88.66
71976;BME280;60680;52.182;5.398;2022-10-16T08:13:32;101365.81;;;13.65;87.83
71976;BME280;60680;52.182;5.398;2022-10-16T08:15:58;101367.00;;;13.76;87.92
71976;BME280;60680;52.182;5.398;2022-10-16T08:18:25;101368.06;;;13.87;87.91
71976;BME280;60680;52.182;5.398;2022-10-16T08:20:56;101370.13;;;13.98;86.91
71976;BME280;60680;52.182;5.398;2022-10-16T08:23:24;101386.66;;;13.99;86.58
71976;BME280;60680;52.182;5.398;2022-10-16T08:25:53;101379.28;;;14.05;86.42
71976;BME280;60680;52.182;5.398;2022-10-16T08:28:20;101376.13;;;14.15;86.81
71976;BME280;60680;52.182;5.398;2022-10-16T08:30:47;101379.34;;;14.20;85.86
71976;BME280;60680;52.182;5.398;2022-10-16T08:33:13;101386.09;;;14.24;86.02
71976;BME280;60680;52.182;5.398;2022-10-16T08:35:39;101389.97;;;14.33;86.07
71976;BME280;60680;52.182;5.398;2022-10-16T08:38:06;101387.56;;;14.44;85.57
71976;BME280;60680;52.182;5.398;2022-10-16T08:40:36;101392.25;;;14.53;84.68
71976;BME280;60680;52.182;5.398;2022-10-16T08:46:30;101405.72;;;14.63;83.94
71976;BME280;60680;52.182;5.398;2022-10-16T08:49:00;101411.22;;;14.73;84.34
71976;BME280;60680;52.182;5.398;2022-10-16T08:51:31;101408.19;;;14.80;83.04
71976;BME280;60680;52.182;5.398;2022-10-16T08:54:04;101425.13;;;14.89;83.14
71976;BME280;60680;52.182;5.398;2022-10-16T08:56:32;101426.16;;;14.86;82.51
71976;BME280;60680;52.182;5.398;2022-10-16T08:58:59;101417.63;;;14.83;82.53
71976;BME280;60680;52.182;5.398;2022-10-16T09:01:41;101431.47;;;14.85;83.33
71976;BME280;60680;52.182;5.398;2022-10-16T09:09:30;101436.13;;;15.10;82.06
71976;BME280;60680;52.182;5.398;2022-10-16T09:12:26;101446.63;;;15.24;81.63
71976;BME280;60680;52.182;5.398;2022-10-16T09:20:38;101448.88;;;15.45;80.94
71976;BME280;60680;52.182;5.398;2022-10-16T09:23:14;101464.88;;;15.55;80.60
71976;BME280;60680;52.182;5.398;2022-10-16T09:25:47;101464.97;;;15.67;78.97
71976;BME280;60680;52.182;5.398;2022-10-16T09:28:16;101460.78;;;15.79;77.55
71976;BME280;60680;52.182;5.398;2022-10-16T09:30:43;101468.06;;;15.88;78.68
71976;BME280;60680;52.182;5.398;2022-10-16T09:33:11;101463.31;;;15.66;78.83
71976;BME280;60680;52.182;5.398;2022-10-16T09:35:40;101470.03;;;15.70;80.01
71976;BME280;60680;52.182;5.398;2022-10-16T09:38:08;101474.91;;;15.91;79.06
71976;BME280;60680;52.182;5.398;2022-10-16T09:40:38;101478.03;;;15.83;78.73
71976;BME280;60680;52.182;5.398;2022-10-16T09:45:37;101492.59;;;16.02;77.06
71976;BME280;60680;52.182;5.398;2022-10-16T09:48:13;101480.53;;;15.99;77.63
71976;BME280;60680;52.182;5.398;2022-10-16T09:50:39;101485.03;;;15.97;76.17
71976;BME280;60680;52.182;5.398;2022-10-16T09:53:12;101489.69;;;16.06;77.00
71976;BME280;60680;52.182;5.398;2022-10-16T09:55:53;101492.31;;;16.06;75.96
71976;BME280;60680;52.182;5.398;2022-10-16T09:58:23;101492.16;;;15.81;75.73
71976;BME280;60680;52.182;5.398;2022-10-16T10:00:52;101499.50;;;15.76;76.84
71976;BME280;60680;52.182;5.398;2022-10-16T10:03:38;101503.53;;;15.81;75.67
71976;BME280;60680;52.182;5.398;2022-10-16T10:06:18;101506.97;;;15.82;76.64
71976;BME280;60680;52.182;5.398;2022-10-16T10:09:03;101510.22;;;16.00;76.56
71976;BME280;60680;52.182;5.398;2022-10-16T10:11:46;101501.13;;;16.05;74.18
71976;BME280;60680;52.182;5.398;2022-10-16T10:14:28;101496.41;;;16.25;75.04
71976;BME280;60680;52.182;5.398;2022-10-16T10:33:31;101517.28;;;15.99;74.31
71976;BME280;60680;52.182;5.398;2022-10-16T10:36:24;101525.91;;;16.01;75.60
71976;BME280;60680;52.182;5.398;2022-10-16T10:39:00;101536.59;;;15.98;72.76
71976;BME280;60680;52.182;5.398;2022-10-16T10:44:25;101542.78;;;15.83;73.79
71976;BME280;60680;52.182;5.398;2022-10-16T10:52:41;101543.59;;;15.98;74.14
71976;BME280;60680;52.182;5.398;2022-10-16T11:00:26;101541.06;;;16.25;73.56
71976;BME280;60680;52.182;5.398;2022-10-16T11:03:24;101536.44;;;16.43;72.79
71976;BME280;60680;52.182;5.398;2022-10-16T11:06:05;101542.84;;;16.79;71.53
71976;BME280;60680;52.182;5.398;2022-10-16T11:08:46;101550.41;;;16.98;70.84
71976;BME280;60680;52.182;5.398;2022-10-16T11:11:35;101556.84;;;17.06;69.38
71976;BME280;60680;52.182;5.398;2022-10-16T11:19:36;101566.31;;;16.55;69.26
71976;BME280;60680;52.182;5.398;2022-10-16T11:22:12;101564.63;;;16.54;69.04
71976;BME280;60680;52.182;5.398;2022-10-16T11:25:02;101568.84;;;16.56;67.87
71976;BME280;60680;52.182;5.398;2022-10-16T11:27:47;101572.53;;;16.54;69.48
71976;BME280;60680;52.182;5.398;2022-10-16T11:30:22;101575.56;;;16.33;68.51
71976;BME280;60680;52.182;5.398;2022-10-16T11:33:12;101571.81;;;16.23;69.72
71976;BME280;60680;52.182;5.398;2022-10-16T11:35:48;101576.06;;;16.11;70.13
71976;BME280;60680;52.182;5.398;2022-10-16T11:38:30;101576.41;;;16.19;70.26
71976;BME280;60680;52.182;5.398;2022-10-16T11:41:03;101580.78;;;16.47;69.67
71976;BME280;60680;52.182;5.398;2022-10-16T11:43:38;101578.81;;;16.78;69.72
71976;BME280;60680;52.182;5.398;2022-10-16T11:46:19;101575.88;;;17.10;69.78
71976;BME280;60680;52.182;5.398;2022-10-16T11:48:54;101569.19;;;17.19;66.95
71976;BME280;60680;52.182;5.398;2022-10-16T11:54:08;101586.38;;;16.97;66.26
71976;BME280;60680;52.182;5.398;2022-10-16T11:56:43;101585.22;;;17.01;67.66
71976;BME280;60680;52.182;5.398;2022-10-16T11:59:24;101594.69;;;17.04;67.10
71976;BME280;60680;52.182;5.398;2022-10-16T12:04:51;101587.47;;;17.07;66.79
71976;BME280;60680;52.182;5.398;2022-10-16T12:07:26;101590.13;;;17.20;66.92
71976;BME280;60680;52.182;5.398;2022-10-16T12:09:53;101593.94;;;17.29;65.54
71976;BME280;60680;52.182;5.398;2022-10-16T12:12:48;101588.75;;;17.27;61.52
71976;BME280;60680;52.182;5.398;2022-10-16T12:15:20;101596.66;;;17.27;60.10
71976;BME280;60680;52.182;5.398;2022-10-16T12:18:21;101599.78;;;17.07;60.38
71976;BME280;60680;52.182;5.398;2022-10-16T12:20:57;101606.75;;;16.94;61.66
71976;BME280;60680;52.182;5.398;2022-10-16T12:23:26;101600.78;;;16.77;63.38
71976;BME280;60680;52.182;5.398;2022-10-16T12:25:57;101610.66;;;16.74;65.35
71976;BME280;60680;52.182;5.398;2022-10-16T12:28:32;101603.81;;;16.71;66.03
71976;BME280;60680;52.182;5.398;2022-10-16T12:31:05;101609.25;;;16.68;65.06
71976;BME280;60680;52.182;5.398;2022-10-16T12:36:02;101609.91;;;16.86;66.53
71976;BME280;60680;52.182;5.398;2022-10-16T12:38:38;101607.75;;;17.05;63.87
71976;BME280;60680;52.182;5.398;2022-10-16T12:41:11;101620.94;;;17.18;62.88
71976;BME280;60680;52.182;5.398;2022-10-16T12:43:45;101618.09;;;17.21;63.83
71976;BME280;60680;52.182;5.398;2022-10-16T12:48:43;101605.03;;;17.07;62.41
71976;BME280;60680;52.182;5.398;2022-10-16T12:59:28;101616.97;;;17.38;63.99
71976;BME280;60680;52.182;5.398;2022-10-16T13:02:21;101619.09;;;17.33;63.36
71976;BME280;60680;52.182;5.398;2022-10-16T13:07:53;101620.66;;;17.36;64.86
71976;BME280;60680;52.182;5.398;2022-10-16T13:10:31;101617.19;;;17.35;62.21
71976;BME280;60680;52.182;5.398;2022-10-16T13:18:59;101625.72;;;17.26;61.55
71976;BME280;60680;52.182;5.398;2022-10-16T13:27:14;101632.84;;;17.24;59.64
71976;BME280;60680;52.182;5.398;2022-10-16T13:29:45;101641.78;;;17.21;59.53
71976;BME280;60680;52.182;5.398;2022-10-16T13:32:19;101643.78;;;17.18;59.00
71976;BME280;60680;52.182;5.398;2022-10-16T13:34:47;101641.34;;;17.15;59.68
71976;BME280;60680;52.182;5.398;2022-10-16T13:37:22;101634.31;;;17.15;58.57
71976;BME280;60680;52.182;5.398;2022-10-16T13:39:49;101640.50;;;17.14;60.33
71976;BME280;60680;52.182;5.398;2022-10-16T13:44:55;101649.97;;;17.17;60.42
71976;BME280;60680;52.182;5.398;2022-10-16T13:47:30;101658.41;;;17.22;60.90
71976;BME280;60680;52.182;5.398;2022-10-16T13:50:05;101656.41;;;17.25;62.16
71976;BME280;60680;52.182;5.398;2022-10-16T13:52:32;101646.75;;;17.26;63.40
71976;BME280;60680;52.182;5.398;2022-10-16T13:54:58;101647.50;;;17.28;62.07
71976;BME280;60680;52.182;5.398;2022-10-16T13:57:28;101651.06;;;17.27;61.58
71976;BME280;60680;52.182;5.398;2022-10-16T13:59:54;101657.56;;;17.21;60.42
71976;BME280;60680;52.182;5.398;2022-10-16T14:02:34;101654.09;;;17.21;60.64
71976;BME280;60680;52.182;5.398;2022-10-16T14:05:04;101651.56;;;17.19;60.14
71976;BME280;60680;52.182;5.398;2022-10-16T14:07:32;101666.41;;;17.20;61.56
71976;BME280;60680;52.182;5.398;2022-10-16T14:10:23;101666.94;;;17.25;61.78
71976;BME280;60680;52.182;5.398;2022-10-16T14:13:03;101660.09;;;17.23;61.33
71976;BME280;60680;52.182;5.398;2022-10-16T14:15:32;101666.19;;;17.23;63.88
71976;BME280;60680;52.182;5.398;2022-10-16T14:18:00;101664.31;;;17.25;62.34
71976;BME280;60680;52.182;5.398;2022-10-16T14:20:29;101670.44;;;17.26;64.20
71976;BME280;60680;52.182;5.398;2022-10-16T14:23:17;101660.84;;;17.25;62.08
71976;BME280;60680;52.182;5.398;2022-10-16T14:25:45;101656.84;;;17.19;60.81
71976;BME280;60680;52.182;5.398;2022-10-16T14:28:18;101660.19;;;17.21;63.17
71976;BME280;60680;52.182;5.398;2022-10-16T14:30:55;101654.91;;;17.21;62.67
71976;BME280;60680;52.182;5.398;2022-10-16T14:36:03;101654.22;;;17.19;64.09
71976;BME280;60680;52.182;5.398;2022-10-16T14:38:32;101663.25;;;17.15;64.36
71976;BME280;60680;52.182;5.398;2022-10-16T14:40:59;101666.16;;;17.10;62.75
71976;BME280;60680;52.182;5.398;2022-10-16T14:43:36;101664.38;;;17.11;64.11
71976;BME280;60680;52.182;5.398;2022-10-16T14:46:11;101673.19;;;17.10;64.49
71976;BME280;60680;52.182;5.398;2022-10-16T14:48:43;101676.56;;;17.12;65.67
71976;BME280;60680;52.182;5.398;2022-10-16T14:51:19;101673.84;;;17.14;63.62